sensor_id;sensor_type;location;lat;lon;timestamp;P1;durP1;ratioP1;P2;durP2;ratioP2
57856;SDS011;43683;48.650;9.290;2023-09-08T00:02:11;11.23;;;6.30;;
57856;SDS011;43683;48.650;9.290;2023-09-08T00:04:36;12.32;;;6.47;;
57856;SDS011;43683;48.650;9.290;2023-09-08T00:07:03;10.45;;;6.30;;
57856;SDS011;43683;48.650;9.290;2023-09-08T00:09:29;10.60;;;6.53;;
57856;SDS011;43683;48.650;9.290;2023-09-08T00:11:54;12.13;;;7.13;;
57856;SDS011;43683;48.650;9.290;2023-09-08T00:14:20;12.77;;;7.18;;
57856;SDS011;43683;48.650;9.290;2023-09-08T00:16:46;11.65;;;6.82;;
57856;SDS011;43683;48.650;9.290;2023-09-08T00:19:11;12.00;;;7.50;;
57856;SDS011;43683;48.650;9.290;2023-09-08T00:21:37;12.43;;;7.70;;
57856;SDS011;43683;48.650;9.290;2023-09-08T00:24:03;15.07;;;7.20;;
57856;SDS011;43683;48.650;9.290;2023-09-08T00:26:29;12.85;;;6.85;;
57856;SDS011;43683;48.650;9.290;2023-09-08T00:28:55;14.43;;;8.05;;
57856;SDS011;43683;48.650;9.290;2023-09-08T00:31:21;10.77;;;6.80;;
57856;SDS011;43683;48.650;9.290;2023-09-08T00:33:46;11.70;;;7.55;;
57856;SDS011;43683;48.650;9.290;2023-09-08T00:36:12;11.07;;;7.25;;
57856;SDS011;43683;48.650;9.290;2023-09-08T00:38:38;12.90;;;7.32;;
57856;SDS011;43683;48.650;9.290;2023-09-08T00:41:04;13.13;;;7.53;;
57856;SDS011;43683;48.650;9.290;2023-09-08T00:43:30;12.75;;;8.05;;
57856;SDS011;43683;48.650;9.290;2023-09-08T00:45:56;11.50;;;7.25;;
57856;SDS011;43683;48.650;9.290;2023-09-08T00:48:27;12.57;;;7.03;;
57856;SDS011;43683;48.650;9.290;2023-09-08T00:50:54;13.98;;;7.57;;
57856;SDS011;43683;48.650;9.290;2023-09-08T00:53:19;11.13;;;7.03;;
57856;SDS011;43683;48.650;9.290;2023-09-08T00:55:46;13.43;;;6.53;;
57856;SDS011;43683;48.650;9.290;2023-09-08T00:58:12;11.27;;;6.97;;
57856;SDS011;43683;48.650;9.290;2023-09-08T01:00:38;13.15;;;7.30;;
57856;SDS011;43683;48.650;9.290;2023-09-08T01:03:04;11.70;;;6.65;;
57856;SDS011;43683;48.650;9.290;2023-09-08T01:05:29;11.43;;;6.60;;
57856;SDS011;43683;48.650;9.290;2023-09-08T01:07:55;13.27;;;7.50;;
57856;SDS011;43683;48.650;9.290;2023-09-08T01:10:22;11.85;;;6.85;;
57856;SDS011;43683;48.650;9.290;2023-09-08T01:12:48;12.10;;;6.85;;
57856;SDS011;43683;48.650;9.290;2023-09-08T01:15:13;13.93;;;7.03;;
57856;SDS011;43683;48.650;9.290;2023-09-08T01:17:39;11.75;;;6.45;;
57856;SDS011;43683;48.650;9.290;2023-09-08T01:20:06;11.68;;;6.78;;
57856;SDS011;43683;48.650;9.290;2023-09-08T01:25:28;10.70;;;6.95;;
57856;SDS011;43683;48.650;9.290;2023-09-08T01:27:55;11.25;;;7.45;;
57856;SDS011;43683;48.650;9.290;2023-09-08T01:30:24;13.85;;;7.07;;
57856;SDS011;43683;48.650;9.290;2023-09-08T01:32:51;12.35;;;7.75;;
57856;SDS011;43683;48.650;9.290;2023-09-08T01:35:19;12.95;;;7.32;;
57856;SDS011;43683;48.650;9.290;2023-09-08T01:37:45;15.82;;;7.35;;
57856;SDS011;43683;48.650;9.290;2023-09-08T01:40:13;13.82;;;7.88;;
57856;SDS011;43683;48.650;9.290;2023-09-08T01:42:39;11.07;;;7.10;;
57856;SDS011;43683;48.650;9.290;2023-09-08T01:45:05;14.82;;;8.25;;
57856;SDS011;43683;48.650;9.290;2023-09-08T01:47:32;13.50;;;8.20;;
57856;SDS011;43683;48.650;9.290;2023-09-08T01:49:58;13.52;;;7.45;;
57856;SDS011;43683;48.650;9.290;2023-09-08T01:52:24;11.80;;;6.75;;
57856;SDS011;43683;48.650;9.290;2023-09-08T01:54:49;13.20;;;7.45;;
57856;SDS011;43683;48.650;9.290;2023-09-08T01:57:15;10.02;;;6.40;;
57856;SDS011;43683;48.650;9.290;2023-09-08T01:59:41;13.70;;;6.45;;
57856;SDS011;43683;48.650;9.290;2023-09-08T02:02:06;11.05;;;6.20;;
57856;SDS011;43683;48.650;9.290;2023-09-08T02:04:32;11.80;;;7.00;;
57856;SDS011;43683;48.650;9.290;2023-09-08T02:06:58;10.95;;;6.75;;
57856;SDS011;43683;48.650;9.290;2023-09-08T02:09:33;12.38;;;6.45;;
57856;SDS011;43683;48.650;9.290;2023-09-08T02:12:00;11.93;;;6.72;;
57856;SDS011;43683;48.650;9.290;2023-09-08T02:14:26;10.93;;;6.95;;
57856;SDS011;43683;48.650;9.290;2023-09-08T02:16:52;12.95;;;6.85;;
57856;SDS011;43683;48.650;9.290;2023-09-08T02:19:18;13.27;;;7.38;;
57856;SDS011;43683;48.650;9.290;2023-09-08T02:21:44;11.50;;;6.78;;
57856;SDS011;43683;48.650;9.290;2023-09-08T02:24:10;11.02;;;7.18;;
57856;SDS011;43683;48.650;9.290;2023-09-08T02:26:37;11.57;;;7.25;;
57856;SDS011;43683;48.650;9.290;2023-09-08T02:29:03;15.13;;;8.05;;
57856;SDS011;43683;48.650;9.290;2023-09-08T02:31:29;10.90;;;7.25;;
57856;SDS011;43683;48.650;9.290;2023-09-08T02:33:55;12.02;;;7.00;;
57856;SDS011;43683;48.650;9.290;2023-09-08T02:36:20;11.57;;;6.53;;
57856;SDS011;43683;48.650;9.290;2023-09-08T02:38:52;12.35;;;6.88;;
57856;SDS011;43683;48.650;9.290;2023-09-08T02:41:18;11.70;;;6.88;;
57856;SDS011;43683;48.650;9.290;2023-09-08T02:43:44;10.02;;;6.25;;
57856;SDS011;43683;48.650;9.290;2023-09-08T02:46:10;10.70;;;6.88;;
57856;SDS011;43683;48.650;9.290;2023-09-08T02:48:35;12.68;;;7.15;;
57856;SDS011;43683;48.650;9.290;2023-09-08T02:51:01;12.30;;;7.28;;
57856;SDS011;43683;48.650;9.290;2023-09-08T02:53:27;12.60;;;7.03;;
57856;SDS011;43683;48.650;9.290;2023-09-08T02:55:54;13.43;;;7.05;;
57856;SDS011;43683;48.650;9.290;2023-09-08T03:00:55;12.80;;;7.40;;
57856;SDS011;43683;48.650;9.290;2023-09-08T03:03:21;11.25;;;6.63;;
57856;SDS011;43683;48.650;9.290;2023-09-08T03:05:47;11.57;;;7.00;;
57856;SDS011;43683;48.650;9.290;2023-09-08T03:08:12;13.45;;;7.15;;
57856;SDS011;43683;48.650;9.290;2023-09-08T03:10:38;16.15;;;8.70;;
57856;SDS011;43683;48.650;9.290;2023-09-08T03:13:04;11.85;;;6.80;;
57856;SDS011;43683;48.650;9.290;2023-09-08T03:15:30;12.95;;;7.25;;
57856;SDS011;43683;48.650;9.290;2023-09-08T03:17:56;13.05;;;7.30;;
57856;SDS011;43683;48.650;9.290;2023-09-08T03:20:26;10.60;;;6.20;;
57856;SDS011;43683;48.650;9.290;2023-09-08T03:22:52;12.68;;;6.85;;
57856;SDS011;43683;48.650;9.290;2023-09-08T03:25:18;13.57;;;7.40;;
57856;SDS011;43683;48.650;9.290;2023-09-08T03:27:43;13.27;;;8.38;;
57856;SDS011;43683;48.650;9.290;2023-09-08T03:30:09;14.73;;;7.38;;
57856;SDS011;43683;48.650;9.290;2023-09-08T03:32:35;12.65;;;8.02;;
57856;SDS011;43683;48.650;9.290;2023-09-08T03:35:01;12.93;;;7.57;;
57856;SDS011;43683;48.650;9.290;2023-09-08T03:39:54;13.38;;;7.38;;
57856;SDS011;43683;48.650;9.290;2023-09-08T03:42:20;13.63;;;7.68;;
57856;SDS011;43683;48.650;9.290;2023-09-08T03:44:45;14.95;;;8.07;;
57856;SDS011;43683;48.650;9.290;2023-09-08T03:47:11;14.18;;;8.25;;
57856;SDS011;43683;48.650;9.290;2023-09-08T03:49:36;12.52;;;7.78;;
57856;SDS011;43683;48.650;9.290;2023-09-08T03:52:02;12.70;;;6.70;;
57856;SDS011;43683;48.650;9.290;2023-09-08T03:54:27;13.60;;;7.13;;
57856;SDS011;43683;48.650;9.290;2023-09-08T03:56:53;11.63;;;7.03;;
57856;SDS011;43683;48.650;9.290;2023-09-08T03:59:18;12.02;;;6.90;;
57856;SDS011;43683;48.650;9.290;2023-09-08T04:01:44;13.88;;;7.38;;
57856;SDS011;43683;48.650;9.290;2023-09-08T04:04:09;11.52;;;6.65;;
57856;SDS011;43683;48.650;9.290;2023-09-08T04:06:35;11.50;;;6.38;;
57856;SDS011;43683;48.650;9.290;2023-09-08T04:09:00;12.15;;;6.68;;
57856;SDS011;43683;48.650;9.290;2023-09-08T04:11:26;10.23;;;6.55;;
57856;SDS011;43683;48.650;9.290;2023-09-08T04:13:52;14.60;;;7.53;;
57856;SDS011;43683;48.650;9.290;2023-09-08T04:16:17;11.73;;;6.40;;
57856;SDS011;43683;48.650;9.290;2023-09-08T04:18:43;11.43;;;6.82;;
57856;SDS011;43683;48.650;9.290;2023-09-08T04:21:09;15.55;;;7.32;;
57856;SDS011;43683;48.650;9.290;2023-09-08T04:23:35;12.95;;;7.25;;
57856;SDS011;43683;48.650;9.290;2023-09-08T04:26:00;13.35;;;7.85;;
57856;SDS011;43683;48.650;9.290;2023-09-08T04:28:26;15.00;;;7.38;;
57856;SDS011;43683;48.650;9.290;2023-09-08T04:30:52;14.63;;;7.57;;
57856;SDS011;43683;48.650;9.290;2023-09-08T04:33:17;12.45;;;7.00;;
57856;SDS011;43683;48.650;9.290;2023-09-08T04:35:43;13.85;;;7.63;;
57856;SDS011;43683;48.650;9.290;2023-09-08T04:38:08;14.00;;;7.53;;
57856;SDS011;43683;48.650;9.290;2023-09-08T04:40:34;11.75;;;7.38;;
57856;SDS011;43683;48.650;9.290;2023-09-08T04:42:59;13.32;;;7.18;;
57856;SDS011;43683;48.650;9.290;2023-09-08T04:45:25;11.65;;;6.97;;
57856;SDS011;43683;48.650;9.290;2023-09-08T04:47:51;12.07;;;7.07;;
57856;SDS011;43683;48.650;9.290;2023-09-08T04:50:16;12.90;;;7.43;;
57856;SDS011;43683;48.650;9.290;2023-09-08T04:52:42;12.65;;;7.00;;
57856;SDS011;43683;48.650;9.290;2023-09-08T04:55:07;13.18;;;7.20;;
57856;SDS011;43683;48.650;9.290;2023-09-08T04:57:33;11.60;;;6.57;;
57856;SDS011;43683;48.650;9.290;2023-09-08T04:59:59;14.38;;;7.18;;
57856;SDS011;43683;48.650;9.290;2023-09-08T05:02:24;12.85;;;7.40;;
57856;SDS011;43683;48.650;9.290;2023-09-08T05:04:50;16.05;;;7.53;;
57856;SDS011;43683;48.650;9.290;2023-09-08T05:07:15;16.15;;;7.50;;
57856;SDS011;43683;48.650;9.290;2023-09-08T05:09:43;12.23;;;7.07;;
57856;SDS011;43683;48.650;9.290;2023-09-08T05:12:08;13.68;;;7.07;;
57856;SDS011;43683;48.650;9.290;2023-09-08T05:14:34;18.95;;;8.80;;
57856;SDS011;43683;48.650;9.290;2023-09-08T05:16:59;15.55;;;8.18;;
57856;SDS011;43683;48.650;9.290;2023-09-08T05:19:25;16.08;;;7.15;;
57856;SDS011;43683;48.650;9.290;2023-09-08T05:21:50;14.07;;;7.20;;
57856;SDS011;43683;48.650;9.290;2023-09-08T05:24:17;14.05;;;7.25;;
57856;SDS011;43683;48.650;9.290;2023-09-08T05:26:42;11.65;;;6.50;;
57856;SDS011;43683;48.650;9.290;2023-09-08T05:29:08;13.10;;;7.45;;
57856;SDS011;43683;48.650;9.290;2023-09-08T05:31:33;14.90;;;8.18;;
57856;SDS011;43683;48.650;9.290;2023-09-08T05:33:59;12.93;;;7.53;;
57856;SDS011;43683;48.650;9.290;2023-09-08T05:36:24;17.83;;;8.35;;
57856;SDS011;43683;48.650;9.290;2023-09-08T05:38:50;13.85;;;7.60;;
57856;SDS011;43683;48.650;9.290;2023-09-08T05:41:16;17.98;;;8.48;;
57856;SDS011;43683;48.650;9.290;2023-09-08T05:43:41;14.70;;;8.10;;
57856;SDS011;43683;48.650;9.290;2023-09-08T05:46:07;15.30;;;8.63;;
57856;SDS011;43683;48.650;9.290;2023-09-08T05:48:32;13.85;;;7.85;;
57856;SDS011;43683;48.650;9.290;2023-09-08T05:50:58;15.27;;;8.80;;
57856;SDS011;43683;48.650;9.290;2023-09-08T05:53:23;14.13;;;8.50;;
57856;SDS011;43683;48.650;9.290;2023-09-08T05:55:49;14.40;;;8.18;;
57856;SDS011;43683;48.650;9.290;2023-09-08T05:58:14;14.88;;;9.15;;
57856;SDS011;43683;48.650;9.290;2023-09-08T06:00:40;14.15;;;8.35;;
57856;SDS011;43683;48.650;9.290;2023-09-08T06:03:06;14.63;;;8.57;;
57856;SDS011;43683;48.650;9.290;2023-09-08T06:05:31;16.80;;;8.60;;
57856;SDS011;43683;48.650;9.290;2023-09-08T06:07:57;16.83;;;8.90;;
57856;SDS011;43683;48.650;9.290;2023-09-08T06:10:22;15.32;;;9.10;;
57856;SDS011;43683;48.650;9.290;2023-09-08T06:12:48;16.13;;;9.05;;
57856;SDS011;43683;48.650;9.290;2023-09-08T06:15:15;14.43;;;8.70;;
57856;SDS011;43683;48.650;9.290;2023-09-08T06:17:41;15.55;;;9.30;;
57856;SDS011;43683;48.650;9.290;2023-09-08T06:20:07;13.73;;;8.48;;
57856;SDS011;43683;48.650;9.290;2023-09-08T06:22:33;14.00;;;8.00;;
57856;SDS011;43683;48.650;9.290;2023-09-08T06:24:59;13.02;;;8.32;;
57856;SDS011;43683;48.650;9.290;2023-09-08T06:27:24;16.90;;;9.20;;
57856;SDS011;43683;48.650;9.290;2023-09-08T06:29:50;14.00;;;8.93;;
57856;SDS011;43683;48.650;9.290;2023-09-08T06:32:16;13.30;;;8.50;;
57856;SDS011;43683;48.650;9.290;2023-09-08T06:34:41;24.00;;;10.02;;
57856;SDS011;43683;48.650;9.290;2023-09-08T06:37:08;14.90;;;9.27;;
57856;SDS011;43683;48.650;9.290;2023-09-08T06:39:33;14.13;;;9.38;;
57856;SDS011;43683;48.650;9.290;2023-09-08T06:41:59;15.82;;;9.02;;
57856;SDS011;43683;48.650;9.290;2023-09-08T06:44:24;16.30;;;9.52;;
57856;SDS011;43683;48.650;9.290;2023-09-08T06:46:50;13.82;;;8.48;;
57856;SDS011;43683;48.650;9.290;2023-09-08T06:49:16;15.32;;;8.40;;
57856;SDS011;43683;48.650;9.290;2023-09-08T06:51:42;14.73;;;8.35;;
57856;SDS011;43683;48.650;9.290;2023-09-08T06:54:08;14.85;;;8.40;;
57856;SDS011;43683;48.650;9.290;2023-09-08T06:56:35;17.60;;;9.30;;
57856;SDS011;43683;48.650;9.290;2023-09-08T06:59:01;15.40;;;7.97;;
57856;SDS011;43683;48.650;9.290;2023-09-08T07:01:27;12.73;;;7.38;;
57856;SDS011;43683;48.650;9.290;2023-09-08T07:03:53;15.23;;;7.30;;
57856;SDS011;43683;48.650;9.290;2023-09-08T07:06:18;12.23;;;6.72;;
57856;SDS011;43683;48.650;9.290;2023-09-08T07:08:47;10.82;;;6.80;;
57856;SDS011;43683;48.650;9.290;2023-09-08T07:11:14;12.98;;;6.60;;
57856;SDS011;43683;48.650;9.290;2023-09-08T07:13:40;12.20;;;7.25;;
57856;SDS011;43683;48.650;9.290;2023-09-08T07:16:06;11.23;;;6.25;;
57856;SDS011;43683;48.650;9.290;2023-09-08T07:18:31;11.35;;;6.65;;
57856;SDS011;43683;48.650;9.290;2023-09-08T07:21:00;10.57;;;6.38;;
57856;SDS011;43683;48.650;9.290;2023-09-08T07:23:29;11.10;;;6.68;;
57856;SDS011;43683;48.650;9.290;2023-09-08T07:25:54;11.23;;;6.25;;
57856;SDS011;43683;48.650;9.290;2023-09-08T07:28:20;10.45;;;6.20;;
57856;SDS011;43683;48.650;9.290;2023-09-08T07:30:45;10.10;;;6.40;;
57856;SDS011;43683;48.650;9.290;2023-09-08T07:33:11;9.82;;;5.97;;
57856;SDS011;43683;48.650;9.290;2023-09-08T07:35:37;8.85;;;5.88;;
57856;SDS011;43683;48.650;9.290;2023-09-08T07:38:04;9.45;;;5.68;;
57856;SDS011;43683;48.650;9.290;2023-09-08T07:40:29;8.95;;;5.53;;
57856;SDS011;43683;48.650;9.290;2023-09-08T07:42:56;8.90;;;5.55;;
57856;SDS011;43683;48.650;9.290;2023-09-08T07:45:22;8.50;;;5.65;;
57856;SDS011;43683;48.650;9.290;2023-09-08T07:47:48;9.40;;;5.07;;
57856;SDS011;43683;48.650;9.290;2023-09-08T07:50:24;9.70;;;5.50;;
57856;SDS011;43683;48.650;9.290;2023-09-08T07:52:52;8.70;;;5.40;;
57856;SDS011;43683;48.650;9.290;2023-09-08T07:55:21;8.73;;;4.70;;
57856;SDS011;43683;48.650;9.290;2023-09-08T07:57:54;7.82;;;4.95;;
57856;SDS011;43683;48.650;9.290;2023-09-08T08:00:20;8.35;;;5.00;;
57856;SDS011;43683;48.650;9.290;2023-09-08T08:02:47;8.38;;;5.00;;
57856;SDS011;43683;48.650;9.290;2023-09-08T08:05:14;8.40;;;4.43;;
57856;SDS011;43683;48.650;9.290;2023-09-08T08:07:41;7.20;;;4.40;;
57856;SDS011;43683;48.650;9.290;2023-09-08T08:12:34;6.95;;;4.22;;
57856;SDS011;43683;48.650;9.290;2023-09-08T08:15:00;7.00;;;3.85;;
57856;SDS011;43683;48.650;9.290;2023-09-08T08:17:26;7.70;;;4.40;;
57856;SDS011;43683;48.650;9.290;2023-09-08T08:19:53;7.85;;;4.40;;
57856;SDS011;43683;48.650;9.290;2023-09-08T08:22:19;7.03;;;3.97;;
57856;SDS011;43683;48.650;9.290;2023-09-08T08:24:45;5.82;;;4.13;;
57856;SDS011;43683;48.650;9.290;2023-09-08T08:27:11;7.25;;;4.03;;
57856;SDS011;43683;48.650;9.290;2023-09-08T08:29:36;7.50;;;4.60;;
57856;SDS011;43683;48.650;9.290;2023-09-08T08:32:02;7.05;;;4.38;;
57856;SDS011;43683;48.650;9.290;2023-09-08T08:34:28;7.45;;;4.00;;
57856;SDS011;43683;48.650;9.290;2023-09-08T08:36:53;7.97;;;4.53;;
57856;SDS011;43683;48.650;9.290;2023-09-08T08:39:19;7.05;;;4.57;;
57856;SDS011;43683;48.650;9.290;2023-09-08T08:41:44;6.50;;;4.05;;
57856;SDS011;43683;48.650;9.290;2023-09-08T08:44:10;7.53;;;4.00;;
57856;SDS011;43683;48.650;9.290;2023-09-08T08:46:36;7.53;;;3.92;;
57856;SDS011;43683;48.650;9.290;2023-09-08T08:49:03;7.72;;;4.15;;
57856;SDS011;43683;48.650;9.290;2023-09-08T08:51:30;6.60;;;4.20;;
57856;SDS011;43683;48.650;9.290;2023-09-08T08:53:56;6.50;;;4.10;;
57856;SDS011;43683;48.650;9.290;2023-09-08T08:56:22;7.00;;;4.15;;
57856;SDS011;43683;48.650;9.290;2023-09-08T08:58:48;6.43;;;3.90;;
57856;SDS011;43683;48.650;9.290;2023-09-08T09:01:15;7.38;;;3.85;;
57856;SDS011;43683;48.650;9.290;2023-09-08T09:03:42;7.57;;;3.97;;
57856;SDS011;43683;48.650;9.290;2023-09-08T09:06:09;8.15;;;4.18;;
57856;SDS011;43683;48.650;9.290;2023-09-08T09:11:02;10.90;;;4.40;;
57856;SDS011;43683;48.650;9.290;2023-09-08T09:13:27;7.20;;;4.43;;
57856;SDS011;43683;48.650;9.290;2023-09-08T09:15:54;8.50;;;4.70;;
57856;SDS011;43683;48.650;9.290;2023-09-08T09:18:24;8.48;;;4.65;;
57856;SDS011;43683;48.650;9.290;2023-09-08T09:20:53;9.00;;;4.30;;
57856;SDS011;43683;48.650;9.290;2023-09-08T09:23:30;7.88;;;4.35;;
57856;SDS011;43683;48.650;9.290;2023-09-08T09:25:57;8.30;;;4.07;;
57856;SDS011;43683;48.650;9.290;2023-09-08T09:28:24;7.88;;;3.53;;
57856;SDS011;43683;48.650;9.290;2023-09-08T09:30:51;4.45;;;3.50;;
57856;SDS011;43683;48.650;9.290;2023-09-08T09:33:19;6.57;;;3.65;;
57856;SDS011;43683;48.650;9.290;2023-09-08T09:35:50;6.95;;;3.58;;
57856;SDS011;43683;48.650;9.290;2023-09-08T09:38:19;6.65;;;3.70;;
57856;SDS011;43683;48.650;9.290;2023-09-08T09:40:45;6.15;;;3.85;;
57856;SDS011;43683;48.650;9.290;2023-09-08T09:43:12;5.28;;;3.67;;
57856;SDS011;43683;48.650;9.290;2023-09-08T09:45:40;6.53;;;3.90;;
57856;SDS011;43683;48.650;9.290;2023-09-08T09:48:08;5.70;;;3.45;;
57856;SDS011;43683;48.650;9.290;2023-09-08T09:53:01;4.93;;;3.40;;
57856;SDS011;43683;48.650;9.290;2023-09-08T09:55:33;7.20;;;3.30;;
57856;SDS011;43683;48.650;9.290;2023-09-08T09:58:00;7.80;;;3.88;;
57856;SDS011;43683;48.650;9.290;2023-09-08T10:00:29;9.02;;;4.05;;
57856;SDS011;43683;48.650;9.290;2023-09-08T10:02:55;7.28;;;3.90;;
57856;SDS011;43683;48.650;9.290;2023-09-08T10:05:21;8.00;;;4.32;;
57856;SDS011;43683;48.650;9.290;2023-09-08T10:07:51;5.80;;;3.40;;
57856;SDS011;43683;48.650;9.290;2023-09-08T10:10:17;8.60;;;3.65;;
57856;SDS011;43683;48.650;9.290;2023-09-08T10:12:44;5.50;;;3.35;;
57856;SDS011;43683;48.650;9.290;2023-09-08T10:15:11;7.25;;;3.50;;
57856;SDS011;43683;48.650;9.290;2023-09-08T10:17:38;6.05;;;3.58;;
57856;SDS011;43683;48.650;9.290;2023-09-08T10:20:05;7.93;;;4.10;;
57856;SDS011;43683;48.650;9.290;2023-09-08T10:22:36;6.15;;;3.55;;
57856;SDS011;43683;48.650;9.290;2023-09-08T10:25:06;6.47;;;3.38;;
57856;SDS011;43683;48.650;9.290;2023-09-08T10:27:33;6.05;;;3.67;;
57856;SDS011;43683;48.650;9.290;2023-09-08T10:30:01;9.00;;;3.83;;
57856;SDS011;43683;48.650;9.290;2023-09-08T10:32:29;7.28;;;3.80;;
57856;SDS011;43683;48.650;9.290;2023-09-08T10:34:57;5.78;;;3.70;;
57856;SDS011;43683;48.650;9.290;2023-09-08T10:37:25;5.32;;;3.70;;
57856;SDS011;43683;48.650;9.290;2023-09-08T10:39:54;7.25;;;4.00;;
57856;SDS011;43683;48.650;9.290;2023-09-08T10:42:24;7.60;;;4.47;;
57856;SDS011;43683;48.650;9.290;2023-09-08T10:44:55;5.88;;;3.60;;
57856;SDS011;43683;48.650;9.290;2023-09-08T10:47:25;6.40;;;3.80;;
57856;SDS011;43683;48.650;9.290;2023-09-08T10:49:56;6.15;;;3.70;;
57856;SDS011;43683;48.650;9.290;2023-09-08T10:52:23;6.90;;;3.92;;
57856;SDS011;43683;48.650;9.290;2023-09-08T10:54:50;9.93;;;4.15;;
57856;SDS011;43683;48.650;9.290;2023-09-08T10:57:20;6.20;;;4.35;;
57856;SDS011;43683;48.650;9.290;2023-09-08T10:59:58;5.63;;;3.35;;
57856;SDS011;43683;48.650;9.290;2023-09-08T11:02:49;7.72;;;3.90;;
57856;SDS011;43683;48.650;9.290;2023-09-08T11:05:21;5.50;;;3.78;;
57856;SDS011;43683;48.650;9.290;2023-09-08T11:07:47;5.03;;;3.33;;
57856;SDS011;43683;48.650;9.290;2023-09-08T11:10:17;6.40;;;3.60;;
57856;SDS011;43683;48.650;9.290;2023-09-08T11:12:43;7.33;;;3.60;;
57856;SDS011;43683;48.650;9.290;2023-09-08T11:15:08;7.50;;;4.70;;
57856;SDS011;43683;48.650;9.290;2023-09-08T11:17:35;9.27;;;3.78;;
57856;SDS011;43683;48.650;9.290;2023-09-08T11:20:04;6.10;;;3.55;;
57856;SDS011;43683;48.650;9.290;2023-09-08T11:22:33;5.90;;;3.75;;
57856;SDS011;43683;48.650;9.290;2023-09-08T11:25:00;7.05;;;3.97;;
57856;SDS011;43683;48.650;9.290;2023-09-08T11:27:27;6.10;;;3.95;;
57856;SDS011;43683;48.650;9.290;2023-09-08T11:29:53;7.18;;;3.90;;
57856;SDS011;43683;48.650;9.290;2023-09-08T11:32:19;7.43;;;4.30;;
57856;SDS011;43683;48.650;9.290;2023-09-08T11:34:45;5.40;;;3.63;;
57856;SDS011;43683;48.650;9.290;2023-09-08T11:37:14;6.27;;;4.00;;
57856;SDS011;43683;48.650;9.290;2023-09-08T11:39:42;8.30;;;3.95;;
57856;SDS011;43683;48.650;9.290;2023-09-08T11:42:10;5.63;;;3.88;;
57856;SDS011;43683;48.650;9.290;2023-09-08T11:44:38;7.25;;;3.72;;
57856;SDS011;43683;48.650;9.290;2023-09-08T11:47:04;5.75;;;3.90;;
57856;SDS011;43683;48.650;9.290;2023-09-08T11:49:33;7.65;;;4.30;;
57856;SDS011;43683;48.650;9.290;2023-09-08T11:52:02;9.10;;;4.00;;
57856;SDS011;43683;48.650;9.290;2023-09-08T11:54:31;6.60;;;4.13;;
57856;SDS011;43683;48.650;9.290;2023-09-08T11:57:02;5.40;;;3.78;;
57856;SDS011;43683;48.650;9.290;2023-09-08T11:59:30;7.43;;;3.97;;
57856;SDS011;43683;48.650;9.290;2023-09-08T12:01:57;7.47;;;3.88;;
57856;SDS011;43683;48.650;9.290;2023-09-08T12:04:23;6.57;;;3.92;;
57856;SDS011;43683;48.650;9.290;2023-09-08T12:06:50;5.72;;;3.92;;
57856;SDS011;43683;48.650;9.290;2023-09-08T12:09:17;6.32;;;3.97;;
57856;SDS011;43683;48.650;9.290;2023-09-08T12:11:43;5.35;;;4.10;;
57856;SDS011;43683;48.650;9.290;2023-09-08T12:14:10;6.60;;;3.95;;
57856;SDS011;43683;48.650;9.290;2023-09-08T12:16:37;6.03;;;3.95;;
57856;SDS011;43683;48.650;9.290;2023-09-08T12:19:03;6.40;;;3.73;;
57856;SDS011;43683;48.650;9.290;2023-09-08T12:21:28;6.57;;;3.67;;
57856;SDS011;43683;48.650;9.290;2023-09-08T12:23:54;7.47;;;3.90;;
57856;SDS011;43683;48.650;9.290;2023-09-08T12:26:20;5.13;;;3.63;;
57856;SDS011;43683;48.650;9.290;2023-09-08T12:28:46;6.50;;;3.95;;
57856;SDS011;43683;48.650;9.290;2023-09-08T12:31:13;5.95;;;3.40;;
57856;SDS011;43683;48.650;9.290;2023-09-08T12:33:39;5.68;;;3.88;;
57856;SDS011;43683;48.650;9.290;2023-09-08T12:36:37;5.70;;;3.33;;
57856;SDS011;43683;48.650;9.290;2023-09-08T12:38:56;5.32;;;3.45;;
57856;SDS011;43683;48.650;9.290;2023-09-08T12:41:21;7.30;;;4.20;;
57856;SDS011;43683;48.650;9.290;2023-09-08T12:43:47;5.17;;;3.73;;
57856;SDS011;43683;48.650;9.290;2023-09-08T12:46:13;7.57;;;3.70;;
57856;SDS011;43683;48.650;9.290;2023-09-08T12:48:41;6.30;;;3.67;;
57856;SDS011;43683;48.650;9.290;2023-09-08T12:51:06;5.83;;;3.50;;
57856;SDS011;43683;48.650;9.290;2023-09-08T12:53:35;6.57;;;3.73;;
57856;SDS011;43683;48.650;9.290;2023-09-08T12:56:01;5.75;;;3.75;;
57856;SDS011;43683;48.650;9.290;2023-09-08T12:58:26;6.77;;;3.73;;
57856;SDS011;43683;48.650;9.290;2023-09-08T13:00:55;6.35;;;3.83;;
57856;SDS011;43683;48.650;9.290;2023-09-08T13:03:21;8.20;;;4.00;;
57856;SDS011;43683;48.650;9.290;2023-09-08T13:05:46;8.50;;;4.33;;
57856;SDS011;43683;48.650;9.290;2023-09-08T13:08:15;7.15;;;4.07;;
57856;SDS011;43683;48.650;9.290;2023-09-08T13:10:40;6.43;;;4.20;;
57856;SDS011;43683;48.650;9.290;2023-09-08T13:13:06;6.93;;;3.83;;
57856;SDS011;43683;48.650;9.290;2023-09-08T13:15:31;7.53;;;3.87;;
57856;SDS011;43683;48.650;9.290;2023-09-08T13:17:57;6.20;;;3.63;;
57856;SDS011;43683;48.650;9.290;2023-09-08T13:20:22;6.53;;;3.93;;
57856;SDS011;43683;48.650;9.290;2023-09-08T13:22:48;6.30;;;3.97;;
57856;SDS011;43683;48.650;9.290;2023-09-08T13:25:13;7.07;;;3.90;;
57856;SDS011;43683;48.650;9.290;2023-09-08T13:27:42;6.87;;;3.70;;
57856;SDS011;43683;48.650;9.290;2023-09-08T13:30:11;6.90;;;3.85;;
57856;SDS011;43683;48.650;9.290;2023-09-08T13:32:38;8.23;;;4.00;;
57856;SDS011;43683;48.650;9.290;2023-09-08T13:35:04;5.68;;;4.07;;
57856;SDS011;43683;48.650;9.290;2023-09-08T13:39:56;5.95;;;4.15;;
57856;SDS011;43683;48.650;9.290;2023-09-08T13:42:22;6.38;;;4.03;;
57856;SDS011;43683;48.650;9.290;2023-09-08T13:44:48;7.43;;;3.93;;
57856;SDS011;43683;48.650;9.290;2023-09-08T13:47:13;6.17;;;3.60;;
57856;SDS011;43683;48.650;9.290;2023-09-08T13:49:39;8.20;;;4.33;;
57856;SDS011;43683;48.650;9.290;2023-09-08T13:52:04;7.33;;;3.87;;
57856;SDS011;43683;48.650;9.290;2023-09-08T13:54:30;8.75;;;3.92;;
57856;SDS011;43683;48.650;9.290;2023-09-08T13:56:57;6.85;;;3.70;;
57856;SDS011;43683;48.650;9.290;2023-09-08T13:59:27;6.68;;;4.50;;
57856;SDS011;43683;48.650;9.290;2023-09-08T14:01:54;7.28;;;4.03;;
57856;SDS011;43683;48.650;9.290;2023-09-08T14:04:20;8.45;;;4.18;;
57856;SDS011;43683;48.650;9.290;2023-09-08T14:06:46;6.13;;;3.50;;
57856;SDS011;43683;48.650;9.290;2023-09-08T14:09:12;6.10;;;3.88;;
57856;SDS011;43683;48.650;9.290;2023-09-08T14:11:37;8.80;;;4.30;;
57856;SDS011;43683;48.650;9.290;2023-09-08T14:14:03;6.93;;;4.07;;
57856;SDS011;43683;48.650;9.290;2023-09-08T14:16:29;6.63;;;4.10;;
57856;SDS011;43683;48.650;9.290;2023-09-08T14:18:54;8.10;;;4.10;;
57856;SDS011;43683;48.650;9.290;2023-09-08T14:21:20;5.90;;;4.07;;
57856;SDS011;43683;48.650;9.290;2023-09-08T14:23:46;6.47;;;4.40;;
57856;SDS011;43683;48.650;9.290;2023-09-08T14:26:11;6.50;;;3.97;;
57856;SDS011;43683;48.650;9.290;2023-09-08T14:28:37;6.77;;;3.83;;
57856;SDS011;43683;48.650;9.290;2023-09-08T14:31:02;6.00;;;3.57;;
57856;SDS011;43683;48.650;9.290;2023-09-08T14:33:28;6.27;;;3.57;;
57856;SDS011;43683;48.650;9.290;2023-09-08T14:35:54;6.33;;;3.63;;
57856;SDS011;43683;48.650;9.290;2023-09-08T14:38:21;7.35;;;3.70;;
57856;SDS011;43683;48.650;9.290;2023-09-08T14:40:53;9.10;;;4.00;;
57856;SDS011;43683;48.650;9.290;2023-09-08T14:43:20;5.03;;;3.35;;
57856;SDS011;43683;48.650;9.290;2023-09-08T14:45:46;5.67;;;3.50;;
57856;SDS011;43683;48.650;9.290;2023-09-08T14:48:11;4.73;;;3.07;;
57856;SDS011;43683;48.650;9.290;2023-09-08T14:50:37;5.10;;;3.07;;
57856;SDS011;43683;48.650;9.290;2023-09-08T14:53:02;5.00;;;3.30;;
57856;SDS011;43683;48.650;9.290;2023-09-08T14:55:28;5.63;;;3.22;;